createdAt,value
2018-01-07T00:01:10.642Z,5.84
2018-01-07T00:03:39.785Z,5.86
2018-01-07T00:06:09.022Z,6.05
2018-01-07T00:08:38.382Z,6.01
2018-01-07T00:11:06.738Z,5.98
2018-01-07T00:13:35.109Z,5.78
2018-01-07T00:16:03.790Z,5.76
2018-01-07T00:18:32.166Z,5.75
2018-01-07T00:21:00.586Z,5.69
2018-01-07T00:23:29.785Z,5.71
2018-01-07T00:25:58.109Z,5.66
2018-01-07T00:28:30.587Z,5.64
2018-01-07T00:30:59.681Z,5.71
2018-01-07T00:33:28.110Z,5.64
2018-01-07T00:35:57.241Z,5.65
2018-01-07T00:38:26.730Z,5.64
2018-01-07T00:40:55.861Z,5.69
2018-01-07T00:43:24.194Z,5.68
2018-01-07T00:45:52.577Z,5.68
2018-01-07T00:48:21.309Z,5.69
2018-01-07T00:50:51.259Z,5.66
2018-01-07T00:53:21.063Z,5.68
2018-01-07T00:55:49.441Z,5.89
2018-01-07T00:58:19.033Z,5.68
2018-01-07T01:00:48.313Z,5.78
2018-01-07T01:03:17.822Z,5.72
2018-01-07T01:05:46.273Z,5.82
2018-01-07T01:08:16.286Z,5.56
2018-01-07T01:10:44.725Z,5.49
2018-01-07T01:13:13.097Z,5.56
2018-01-07T01:15:41.494Z,5.52
2018-01-07T01:18:10.067Z,5.42
2018-01-07T01:20:38.448Z,5.52
2018-01-07T01:23:06.798Z,5.40
2018-01-07T01:25:35.261Z,5.28
2018-01-07T01:28:04.542Z,5.28
2018-01-07T01:30:32.877Z,5.27
2018-01-07T01:33:01.245Z,5.27
2018-01-07T01:35:29.610Z,5.27
2018-01-07T01:37:58.025Z,5.29
2018-01-07T01:40:27.454Z,5.27
2018-01-07T01:42:56.574Z,5.26
2018-01-07T01:45:25.701Z,5.24
2018-01-07T01:47:54.089Z,5.24
2018-01-07T01:50:23.589Z,5.23
2018-01-07T01:52:51.936Z,5.24
2018-01-07T01:55:20.317Z,5.28
2018-01-07T01:57:48.969Z,5.20
2018-01-07T02:00:18.045Z,5.05
2018-01-07T02:02:46.496Z,4.90
2018-01-07T02:05:14.864Z,5.16
2018-01-07T02:07:43.666Z,5.17
2018-01-07T02:10:12.038Z,5.09
2018-01-07T02:12:40.377Z,4.99
2018-01-07T02:15:10.293Z,5.01
2018-01-07T02:17:39.441Z,4.95
2018-01-07T02:20:08.491Z,4.92
2018-01-07T02:22:36.802Z,5.01
2018-01-07T02:25:07.557Z,4.88
2018-01-07T02:27:35.871Z,4.79
2018-01-07T02:30:05.229Z,4.73
2018-01-07T02:32:33.641Z,4.71
2018-01-07T02:35:01.997Z,4.68
2018-01-07T02:37:31.441Z,4.64
2018-01-07T02:39:59.784Z,4.60
2018-01-07T02:42:28.177Z,4.58
2018-01-07T02:44:57.176Z,4.54
2018-01-07T02:47:26.404Z,4.54
2018-01-07T02:49:54.781Z,4.51
2018-01-07T02:52:23.197Z,4.46
2018-01-07T02:54:51.609Z,4.42
2018-01-07T02:57:20.709Z,4.39
2018-01-07T02:59:49.881Z,4.44
2018-01-07T03:02:19.448Z,4.42
2018-01-07T03:04:47.852Z,4.43
2018-01-07T03:07:16.630Z,4.39
2018-01-07T03:09:44.960Z,4.32
2018-01-07T03:12:14.209Z,4.35
2018-01-07T03:14:42.556Z,4.33
2018-01-07T03:17:10.992Z,4.26
2018-01-07T03:19:39.356Z,4.21
2018-01-07T03:22:07.696Z,4.20
2018-01-07T03:24:36.076Z,4.26
2018-01-07T03:27:04.412Z,4.17
2018-01-07T03:29:32.776Z,4.10
2018-01-07T03:32:01.105Z,4.08
2018-01-07T03:34:29.457Z,4.09
2018-01-07T03:36:58.600Z,4.02
2018-01-07T03:39:26.940Z,3.96
2018-01-07T03:41:55.264Z,3.94
2018-01-07T03:44:23.624Z,3.91
2018-01-07T03:46:52.064Z,3.88
2018-01-07T03:49:21.168Z,3.87
2018-01-07T03:51:49.544Z,3.81
2018-01-07T03:54:18.667Z,3.78
2018-01-07T03:56:47.029Z,3.77
2018-01-07T03:59:15.349Z,3.72
2018-01-07T04:01:43.668Z,3.76
2018-01-07T04:04:12.821Z,3.66
2018-01-07T04:06:41.152Z,3.61
2018-01-07T04:09:09.505Z,3.31
2018-01-07T04:11:38.625Z,3.59
2018-01-07T04:14:06.996Z,3.54
2018-01-07T04:16:36.092Z,3.63
2018-01-07T04:19:05.244Z,3.52
2018-01-07T04:21:33.626Z,3.45
2018-01-07T04:24:01.956Z,3.43
2018-01-07T04:26:30.324Z,3.42
2018-01-07T04:28:58.702Z,3.42
2018-01-07T04:31:27.088Z,3.38
2018-01-07T04:33:55.455Z,3.35
2018-01-07T04:36:24.597Z,3.27
2018-01-07T04:38:52.939Z,3.25
2018-01-07T04:41:21.319Z,3.22
2018-01-07T04:43:49.639Z,3.24
2018-01-07T04:46:18.451Z,3.22
2018-01-07T04:48:47.548Z,3.22
2018-01-07T04:51:16.676Z,3.27
2018-01-07T04:53:45.071Z,3.25
2018-01-07T04:56:13.424Z,3.23
2018-01-07T04:58:41.787Z,3.21
2018-01-07T05:01:10.897Z,3.22
2018-01-07T05:03:39.267Z,3.23
2018-01-07T05:06:08.389Z,3.22
2018-01-07T05:08:36.727Z,3.21
2018-01-07T05:11:05.094Z,3.21
2018-01-07T05:13:33.423Z,3.21
2018-01-07T05:16:01.837Z,3.25
2018-01-07T05:18:30.175Z,3.25
2018-01-07T05:20:58.520Z,3.18
2018-01-07T05:23:27.663Z,3.17
2018-01-07T05:25:55.987Z,3.12
2018-01-07T05:28:25.116Z,3.11
2018-01-07T05:30:53.463Z,3.14
2018-01-07T05:33:22.603Z,3.10
2018-01-07T05:35:50.971Z,3.05
2018-01-07T05:38:19.295Z,3.09
2018-01-07T05:40:47.619Z,3.10
2018-01-07T05:43:15.975Z,3.09
2018-01-07T05:45:45.067Z,3.07
2018-01-07T05:48:14.207Z,2.99
2018-01-07T05:50:42.583Z,3.03
2018-01-07T05:53:10.907Z,3.02
2018-01-07T05:55:39.271Z,2.96
2018-01-07T05:58:08.370Z,3.01
2018-01-07T06:00:36.699Z,2.92
2018-01-07T06:03:05.074Z,2.91
2018-01-07T06:05:33.391Z,2.96
2018-01-07T06:08:01.727Z,2.88
2018-01-07T06:10:30.075Z,2.85
2018-01-07T06:12:59.167Z,2.87
2018-01-07T06:15:28.303Z,2.88
2018-01-07T06:17:56.622Z,2.85
2018-01-07T06:20:24.947Z,2.87
2018-01-07T06:22:53.322Z,2.88
2018-01-07T06:25:21.645Z,2.83
2018-01-07T06:27:49.982Z,2.81
2018-01-07T06:30:18.367Z,2.81
2018-01-07T06:32:46.698Z,2.84
2018-01-07T06:35:15.048Z,2.87
2018-01-07T06:37:43.366Z,2.82
2018-01-07T06:40:12.495Z,2.82
2018-01-07T06:42:40.863Z,2.80
2018-01-07T06:45:09.242Z,2.85
2018-01-07T06:47:37.574Z,2.81
2018-01-07T06:50:05.982Z,2.83
2018-01-07T06:52:34.318Z,2.82
2018-01-07T06:55:02.695Z,2.81
2018-01-07T06:57:31.074Z,2.78
2018-01-07T06:59:59.394Z,2.78
2018-01-07T07:02:27.726Z,2.81
2018-01-07T07:04:56.191Z,2.80
2018-01-07T07:07:24.602Z,2.83
2018-01-07T07:09:52.971Z,2.83
2018-01-07T07:12:21.314Z,2.78
2018-01-07T07:14:49.699Z,2.80
2018-01-07T07:17:18.022Z,2.82
2018-01-07T07:19:47.124Z,2.84
2018-01-07T07:22:16.254Z,2.85
2018-01-07T07:24:44.611Z,2.82
2018-01-07T07:27:14.323Z,2.83
2018-01-07T07:29:42.652Z,2.86
2018-01-07T07:32:11.016Z,2.89
2018-01-07T07:34:39.379Z,2.86
2018-01-07T07:37:07.734Z,2.88
2018-01-07T07:39:36.080Z,2.87
2018-01-07T07:42:04.456Z,2.91
2018-01-07T07:44:33.666Z,2.93
2018-01-07T07:47:02.774Z,2.98
2018-01-07T07:49:32.642Z,2.91
2018-01-07T07:52:00.966Z,2.91
2018-01-07T07:54:29.418Z,2.90
2018-01-07T07:56:57.782Z,2.93
2018-01-07T07:59:26.106Z,2.95
2018-01-07T08:01:54.442Z,2.90
2018-01-07T08:04:22.800Z,2.89
2018-01-07T08:06:51.148Z,2.94
2018-01-07T08:09:19.478Z,2.89
2018-01-07T08:11:49.338Z,2.94
2018-01-07T08:14:18.062Z,3.05
2018-01-07T08:16:46.438Z,3.00
2018-01-07T08:19:14.786Z,2.98
2018-01-07T08:21:43.126Z,2.94
2018-01-07T08:24:12.265Z,2.97
2018-01-07T08:26:40.674Z,2.96
2018-01-07T08:29:10.682Z,2.98
2018-01-07T08:31:39.098Z,3.01
2018-01-07T08:34:07.489Z,3.02
2018-01-07T08:36:35.838Z,3.01
2018-01-07T08:39:04.268Z,3.03
2018-01-07T08:41:32.628Z,3.00
2018-01-07T08:44:00.983Z,3.05
2018-01-07T08:46:37.082Z,3.07
2018-01-07T08:49:05.540Z,3.01
2018-01-07T08:51:34.698Z,3.02
2018-01-07T08:54:03.039Z,2.99
2018-01-07T08:56:32.145Z,3.00
2018-01-07T08:59:01.683Z,2.98
2018-01-07T09:01:30.059Z,3.00
2018-01-07T09:03:58.393Z,3.00
2018-01-07T09:06:26.786Z,3.07
2018-01-07T09:08:55.163Z,3.07
2018-01-07T09:11:24.633Z,3.00
2018-01-07T09:13:53.773Z,3.09
2018-01-07T09:16:22.117Z,3.06
2018-01-07T09:18:50.489Z,3.25
2018-01-07T09:21:19.591Z,3.15
2018-01-07T09:23:47.983Z,3.20
2018-01-07T09:26:16.314Z,3.16
2018-01-07T09:28:44.651Z,3.25
2018-01-07T09:31:13.165Z,3.36
2018-01-07T09:33:41.527Z,3.20
2018-01-07T09:36:09.850Z,3.25
2018-01-07T09:38:38.195Z,3.37
2018-01-07T09:41:06.590Z,3.46
2018-01-07T09:43:35.678Z,3.42
2018-01-07T09:46:04.035Z,3.39
2018-01-07T09:48:32.361Z,3.37
2018-01-07T09:51:00.759Z,3.48
2018-01-07T09:53:29.115Z,3.45
2018-01-07T09:55:57.469Z,3.64
2018-01-07T09:58:26.577Z,3.51
2018-01-07T10:00:55.730Z,3.51
2018-01-07T10:03:24.102Z,3.46
2018-01-07T10:05:52.617Z,3.49
2018-01-07T10:08:21.341Z,3.69
2018-01-07T10:10:50.877Z,3.95
2018-01-07T10:13:19.209Z,3.89
2018-01-07T10:15:49.432Z,3.73
2018-01-07T10:18:18.589Z,3.60
2018-01-07T10:20:48.933Z,3.49
2018-01-07T10:23:18.613Z,3.56
2018-01-07T10:25:48.846Z,3.58
2018-01-07T10:28:17.262Z,3.65
2018-01-07T10:30:45.730Z,3.69
2018-01-07T10:33:14.841Z,3.95
2018-01-07T10:35:43.333Z,3.94
2018-01-07T10:38:11.992Z,3.91
2018-01-07T10:40:41.133Z,3.99
2018-01-07T10:43:10.266Z,3.82
2018-01-07T10:45:38.605Z,3.92
2018-01-07T10:48:06.974Z,3.84
2018-01-07T10:50:35.305Z,3.91
2018-01-07T10:53:03.652Z,3.89
2018-01-07T10:55:32.065Z,3.84
2018-01-07T10:58:01.229Z,3.77
2018-01-07T11:00:29.672Z,3.79
2018-01-07T11:02:58.241Z,3.93
2018-01-07T11:05:26.632Z,3.65
2018-01-07T11:07:55.053Z,3.76
2018-01-07T11:10:24.249Z,3.83
2018-01-07T11:12:52.621Z,4.09
2018-01-07T11:15:20.995Z,4.12
2018-01-07T11:17:49.383Z,4.20
2018-01-07T11:20:17.694Z,3.90
2018-01-07T11:22:46.885Z,3.84
2018-01-07T11:25:15.309Z,3.83
2018-01-07T11:27:43.713Z,3.81
2018-01-07T11:30:12.068Z,3.89
2018-01-07T11:32:41.390Z,3.89
2018-01-07T11:35:10.960Z,4.09
2018-01-07T11:37:39.404Z,4.01
2018-01-07T11:40:07.756Z,3.97
2018-01-07T11:42:36.083Z,4.12
2018-01-07T11:45:05.241Z,3.82
2018-01-07T11:47:33.640Z,4.17
2018-01-07T11:50:02.181Z,3.96
2018-01-07T11:52:30.526Z,3.93
2018-01-07T11:54:58.910Z,4.13
2018-01-07T11:57:27.245Z,4.06
2018-01-07T11:59:55.765Z,3.94
2018-01-07T12:02:24.257Z,4.02
2018-01-07T12:04:54.179Z,4.01
2018-01-07T12:07:25.598Z,3.83
2018-01-07T12:09:57.516Z,3.85
2018-01-07T12:12:27.516Z,3.96
2018-01-07T12:14:56.002Z,3.91
2018-01-07T12:17:25.512Z,4.03
2018-01-07T12:19:55.173Z,3.94
2018-01-07T12:22:23.704Z,4.09
2018-01-07T12:24:54.688Z,4.01
2018-01-07T12:27:23.204Z,4.11
2018-01-07T12:29:52.348Z,4.31
2018-01-07T12:32:31.252Z,4.28
2018-01-07T12:35:00.593Z,4.14
2018-01-07T12:37:29.005Z,3.86
2018-01-07T12:39:57.356Z,3.92
2018-01-07T12:42:25.700Z,4.08
2018-01-07T12:44:54.988Z,4.04
2018-01-07T12:47:24.516Z,4.03
2018-01-07T12:49:54.175Z,4.00
2018-01-07T12:52:23.174Z,4.05
2018-01-07T12:54:52.120Z,4.14
2018-01-07T12:57:21.404Z,4.11
2018-01-07T12:59:51.444Z,4.08
2018-01-07T13:02:22.090Z,4.12
2018-01-07T13:04:52.299Z,4.20
2018-01-07T13:07:20.832Z,4.43
2018-01-07T13:09:49.423Z,4.30
2018-01-07T13:12:20.349Z,4.16
2018-01-07T13:14:48.889Z,4.04
2018-01-07T13:17:19.484Z,4.17
2018-01-07T13:19:48.553Z,4.20
2018-01-07T13:22:17.004Z,4.22
2018-01-07T13:24:46.581Z,4.12
2018-01-07T13:27:15.440Z,4.25
2018-01-07T13:29:43.800Z,4.32
2018-01-07T13:32:13.764Z,4.30
2018-01-07T13:34:43.776Z,4.19
2018-01-07T13:37:13.827Z,4.17
2018-01-07T13:39:42.264Z,4.22
2018-01-07T13:42:10.743Z,4.18
2018-01-07T13:44:40.053Z,4.08
2018-01-07T13:47:10.344Z,4.12
2018-01-07T13:49:39.335Z,4.30
2018-01-07T13:52:09.445Z,4.17
2018-01-07T13:54:37.905Z,4.05
2018-01-07T13:57:09.024Z,4.06
2018-01-07T13:59:41.034Z,3.93
2018-01-07T14:02:20.316Z,4.03
2018-01-07T14:04:53.127Z,4.15
2018-01-07T14:07:24.933Z,3.93
2018-01-07T14:09:55.484Z,3.96
2018-01-07T14:12:25.527Z,3.96
2018-01-07T14:14:53.943Z,3.96
2018-01-07T14:17:39.202Z,4.00
2018-01-07T14:20:07.713Z,3.98
2018-01-07T14:22:36.896Z,3.94
2018-01-07T14:25:05.280Z,3.98
2018-01-07T14:27:33.723Z,4.06
2018-01-07T14:30:02.144Z,3.97
2018-01-07T14:32:30.531Z,3.87
2018-01-07T14:34:58.867Z,3.85
2018-01-07T14:37:27.267Z,3.96
2018-01-07T14:39:56.302Z,3.96
2018-01-07T14:42:25.455Z,3.87
2018-01-07T14:44:53.988Z,3.94
2018-01-07T14:47:22.431Z,3.82
2018-01-07T14:49:50.825Z,3.72
2018-01-07T14:52:19.170Z,3.69
2018-01-07T14:54:47.819Z,3.73
2018-01-07T14:57:16.281Z,3.73
2018-01-07T14:59:44.669Z,3.71
2018-01-07T15:02:13.103Z,3.57
2018-01-07T15:04:41.459Z,3.67
2018-01-07T15:07:09.852Z,3.80
2018-01-07T15:09:38.491Z,3.69
2018-01-07T15:12:06.879Z,3.61
2018-01-07T15:14:35.219Z,3.66
2018-01-07T15:17:07.052Z,3.63
2018-01-07T15:19:36.394Z,3.63
2018-01-07T15:22:05.727Z,3.66
2018-01-07T15:24:34.193Z,3.57
2018-01-07T15:27:02.517Z,3.62
2018-01-07T15:29:30.904Z,3.74
2018-01-07T15:31:59.244Z,3.61
2018-01-07T15:34:27.674Z,3.55
2018-01-07T15:36:57.101Z,3.54
2018-01-07T15:39:26.410Z,3.53
2018-01-07T15:41:54.746Z,3.50
2018-01-07T15:44:23.124Z,3.41
2018-01-07T15:46:51.467Z,3.37
2018-01-07T15:49:19.850Z,3.47
2018-01-07T15:51:49.123Z,3.51
2018-01-07T15:54:19.506Z,3.66
2018-01-07T15:56:48.494Z,3.56
2018-01-07T15:59:17.151Z,3.29
2018-01-07T16:01:47.173Z,3.44
2018-01-07T16:04:16.763Z,3.39
2018-01-07T16:06:45.301Z,3.37
2018-01-07T16:09:15.387Z,3.42
2018-01-07T16:11:43.975Z,3.38
2018-01-07T16:14:14.752Z,3.30
2018-01-07T16:16:44.980Z,3.26
2018-01-07T16:19:13.516Z,3.27
2018-01-07T16:21:41.916Z,3.19
2018-01-07T16:24:13.031Z,3.17
2018-01-07T16:26:43.676Z,3.20
2018-01-07T16:29:12.798Z,3.17
2018-01-07T16:31:41.361Z,3.16
2018-01-07T16:34:10.576Z,3.06
2018-01-07T16:36:39.971Z,3.01
2018-01-07T16:39:09.208Z,2.98
2018-01-07T16:41:37.830Z,2.98
2018-01-07T16:44:06.716Z,2.92
2018-01-07T16:46:36.154Z,2.92
2018-01-07T16:49:04.684Z,2.86
2018-01-07T16:51:33.256Z,2.83
2018-01-07T16:54:05.694Z,2.86
2018-01-07T16:56:35.596Z,2.82
2018-01-07T16:59:05.576Z,2.74
2018-01-07T17:01:38.481Z,2.72
2018-01-07T17:04:09.059Z,2.73
2018-01-07T17:06:37.698Z,2.71
2018-01-07T17:09:09.008Z,2.72
2018-01-07T17:11:38.567Z,2.66
2018-01-07T17:14:07.843Z,2.63
2018-01-07T17:16:40.383Z,2.64
2018-01-07T17:19:10.042Z,2.54
2018-01-07T17:21:39.054Z,2.54
2018-01-07T17:24:07.403Z,2.51
2018-01-07T17:26:36.543Z,2.58
2018-01-07T17:29:04.875Z,2.50
2018-01-07T17:31:34.823Z,2.50
2018-01-07T17:34:03.693Z,2.46
2018-01-07T17:36:33.725Z,2.47
2018-01-07T17:39:03.790Z,2.44
2018-01-07T17:41:32.158Z,2.34
2018-01-07T17:44:00.546Z,2.39
2018-01-07T17:46:29.234Z,2.23
2018-01-07T17:48:58.416Z,2.17
2018-01-07T17:51:27.258Z,2.04
2018-01-07T17:53:57.443Z,2.11
2018-01-07T17:56:32.097Z,2.07
2018-01-07T17:59:01.355Z,2.07
2018-01-07T18:01:29.788Z,2.06
2018-01-07T18:03:59.491Z,2.01
2018-01-07T18:06:28.025Z,1.98
2018-01-07T18:08:57.202Z,1.94
2018-01-07T18:11:25.719Z,1.89
2018-01-07T18:13:54.306Z,1.83
2018-01-07T18:16:22.876Z,1.75
2018-01-07T18:18:51.425Z,1.72
2018-01-07T18:21:20.095Z,1.66
2018-01-07T18:23:49.506Z,1.63
2018-01-07T18:26:17.942Z,1.53
2018-01-07T18:28:47.521Z,1.43
2018-01-07T18:31:15.882Z,1.31
2018-01-07T18:33:47.406Z,1.30
2018-01-07T18:36:18.177Z,1.28
2018-01-07T18:38:47.447Z,1.21
2018-01-07T18:41:17.477Z,1.23
2018-01-07T18:43:46.945Z,1.16
2018-01-07T18:46:16.597Z,1.06
2018-01-07T18:48:44.957Z,1.02
2018-01-07T18:51:13.407Z,1.05
2018-01-07T18:53:42.663Z,1.01
2018-01-07T18:56:12.608Z,1.01
2018-01-07T18:58:41.837Z,0.96
2018-01-07T19:01:10.270Z,0.87
2018-01-07T19:03:39.675Z,0.87
2018-01-07T19:06:08.013Z,0.85
2018-01-07T19:08:36.361Z,0.79
2018-01-07T19:11:06.407Z,0.84
2018-01-07T19:13:36.290Z,0.84
2018-01-07T19:16:05.082Z,0.80
2018-01-07T19:18:35.091Z,0.79
2018-01-07T19:21:03.616Z,0.78
2018-01-07T19:23:31.984Z,0.78
2018-01-07T19:26:00.352Z,0.72
2018-01-07T19:28:29.546Z,0.73
2018-01-07T19:30:59.237Z,0.80
2018-01-07T19:33:27.636Z,0.80
2018-01-07T19:35:56.029Z,0.88
2018-01-07T19:38:26.862Z,0.76
2018-01-07T19:40:55.295Z,0.78
2018-01-07T19:43:24.509Z,0.81
2018-01-07T19:45:55.250Z,0.80
2018-01-07T19:48:25.210Z,0.78
2018-01-07T19:50:53.646Z,0.81
2018-01-07T19:53:23.192Z,0.74
2018-01-07T19:55:52.758Z,0.75
2018-01-07T19:58:21.919Z,0.69
2018-01-07T20:00:52.829Z,0.75
2018-01-07T20:03:21.484Z,0.69
2018-01-07T20:05:51.432Z,0.78
2018-01-07T20:08:20.842Z,0.68
2018-01-07T20:10:50.619Z,0.64
2018-01-07T20:13:19.035Z,0.77
2018-01-07T20:15:48.870Z,0.87
2018-01-07T20:18:19.032Z,0.86
2018-01-07T20:20:47.548Z,0.87
2018-01-07T20:23:16.909Z,0.81
2018-01-07T20:25:49.964Z,0.82
2018-01-07T20:28:18.321Z,0.91
2018-01-07T20:30:47.473Z,0.82
2018-01-07T20:33:16.687Z,0.95
2018-01-07T20:35:46.226Z,0.93
2018-01-07T20:38:19.418Z,0.89
2018-01-07T20:40:52.707Z,0.85
2018-01-07T20:43:22.444Z,0.85
2018-01-07T20:45:51.824Z,0.79
2018-01-07T20:48:22.736Z,0.77
2018-01-07T20:50:51.116Z,0.73
2018-01-07T20:53:19.453Z,0.77
2018-01-07T20:55:49.584Z,0.73
2018-01-07T20:58:19.816Z,0.82
2018-01-07T21:00:48.259Z,0.85
2018-01-07T21:03:16.600Z,0.78
2018-01-07T21:05:45.088Z,0.77
2018-01-07T21:08:15.134Z,0.85
2018-01-07T21:10:44.425Z,0.68
2018-01-07T21:13:12.759Z,0.70
2018-01-07T21:15:41.187Z,0.77
2018-01-07T21:18:09.536Z,0.69
2018-01-07T21:20:37.916Z,0.68
2018-01-07T21:23:06.294Z,0.59
2018-01-07T21:25:34.684Z,0.58
2018-01-07T21:28:03.056Z,0.55
2018-01-07T21:30:31.477Z,0.53
2018-01-07T21:33:00.724Z,0.56
2018-01-07T21:35:29.087Z,0.53
2018-01-07T21:37:57.759Z,0.48
2018-01-07T21:40:26.923Z,0.33
2018-01-07T21:42:55.258Z,0.28
2018-01-07T21:45:23.639Z,0.41
2018-01-07T21:47:51.976Z,0.46
2018-01-07T21:50:21.124Z,0.42
2018-01-07T21:52:50.340Z,0.48
2018-01-07T21:55:18.693Z,0.61
2018-01-07T21:57:47.039Z,0.37
2018-01-07T22:00:45.819Z,0.26
2018-01-07T22:03:32.489Z,0.30
2018-01-07T22:06:18.496Z,0.36
2018-01-07T22:08:46.831Z,0.29
2018-01-07T22:11:15.220Z,0.18
2018-01-07T22:13:43.555Z,0.16
2018-01-07T22:16:11.947Z,0.10
2018-01-07T22:18:40.351Z,0.22
2018-01-07T22:21:08.719Z,0.19
2018-01-07T22:23:37.117Z,0.22
2018-01-07T22:26:05.463Z,0.15
2018-01-07T22:28:33.871Z,0.05
2018-01-07T22:31:02.292Z,0.21
2018-01-07T22:33:31.391Z,0.20
2018-01-07T22:36:00.639Z,0.30
2018-01-07T22:38:28.983Z,0.23
2018-01-07T22:40:57.359Z,0.26
2018-01-07T22:43:25.709Z,0.05
2018-01-07T22:45:54.903Z,-0.03
2018-01-07T22:48:23.251Z,0.12
2018-01-07T22:50:51.603Z,0.14
2018-01-07T22:53:19.980Z,0.13
2018-01-07T22:55:48.323Z,0.08
2018-01-07T22:58:17.423Z,0.14
2018-01-07T23:00:46.567Z,0.15
2018-01-07T23:03:14.912Z,0.08
2018-01-07T23:05:43.379Z,0.18
2018-01-07T23:08:11.755Z,0.17
2018-01-07T23:10:41.230Z,0.02
2018-01-07T23:13:09.615Z,0.05
2018-01-07T23:15:38.022Z,0.10
2018-01-07T23:18:06.412Z,0.07
2018-01-07T23:20:34.735Z,0.11
2018-01-07T23:23:03.099Z,0.04
2018-01-07T23:25:31.527Z,0.08
2018-01-07T23:28:00.635Z,0.31
2018-01-07T23:30:28.983Z,0.08
2018-01-07T23:32:57.358Z,0.04
2018-01-07T23:35:25.690Z,0.11
2018-01-07T23:37:54.066Z,0.02
2018-01-07T23:40:22.493Z,-0.07
2018-01-07T23:42:50.838Z,-0.12
2018-01-07T23:45:19.214Z,0.12
2018-01-07T23:47:47.566Z,0.14
2018-01-07T23:50:15.943Z,-0.07
2018-01-07T23:52:44.290Z,-0.21
2018-01-07T23:55:12.663Z,-0.20
2018-01-07T23:57:41.058Z,-0.16
